Time;durP1;ratioP1;P1;durP2;ratioP2;P2;SDS_P1;SDS_P2;PMS_P1;PMS_P2;Temp;Humidity;BMP_temperature;BMP_pressure;BME280_temperature;BME280_humidity;BME280_pressure;Samples;Min_cycle;Max_cycle;Signal;HPM_P1;HPM_P2
2023/03/15 00:00:41;;;;;;;1.67;1.05;;;5.40;99.90;;;;;;10087420;28;20405;-64
2023/03/15 00:05:31;;;;;;;1.98;1.40;;;5.40;99.90;;;;;;10070040;28;20456;-56
2023/03/15 00:10:22;;;;;;;2.00;1.02;;;5.30;99.90;;;;;;10074796;28;20075;-63
2023/03/15 00:15:14;;;;;;;1.75;0.82;;;5.30;99.90;;;;;;10089295;28;20044;-59
2023/03/15 00:20:05;;;;;;;1.88;0.70;;;5.50;99.90;;;;;;10078624;28;20457;-63
2023/03/15 00:24:56;;;;;;;2.10;1.40;;;5.50;99.90;;;;;;10090805;28;20063;-60
2023/03/15 00:29:46;;;;;;;1.75;1.02;;;5.50;99.90;;;;;;10090989;28;20072;-61
2023/03/15 00:34:37;;;;;;;2.90;0.95;;;5.50;99.90;;;;;;10086439;28;20120;-58
2023/03/15 00:39:28;;;;;;;1.95;1.30;;;5.50;99.90;;;;;;10099752;28;20104;-59
2023/03/15 00:44:18;;;;;;;2.38;0.75;;;5.50;99.90;;;;;;10089753;28;20041;-58
2023/03/15 00:49:09;;;;;;;1.55;0.85;;;5.50;99.90;;;;;;10078521;28;20217;-62
2023/03/15 00:53:59;;;;;;;2.03;1.23;;;5.20;99.90;;;;;;10099593;28;20379;-59
2023/03/15 00:58:54;;;;;;;2.67;1.35;;;5.20;99.90;;;;;;10084899;28;20025;-56
2023/03/15 01:03:45;;;;;;;2.08;0.88;;;5.20;99.90;;;;;;10074837;28;20029;-63
2023/03/15 01:08:36;;;;;;;0.98;0.70;;;5.20;99.90;;;;;;10092201;28;20013;-61
2023/03/15 01:13:27;;;;;;;1.75;1.30;;;5.20;99.90;;;;;;10096754;28;20025;-57
2023/03/15 01:18:17;;;;;;;4.55;1.45;;;5.20;99.90;;;;;;10083214;28;20095;-61
2023/03/15 01:23:08;;;;;;;1.75;1.20;;;5.10;99.90;;;;;;10077894;28;20669;-58
2023/03/15 01:27:58;;;;;;;2.60;1.05;;;5.00;99.90;;;;;;10079029;28;20040;-60
2023/03/15 01:32:49;;;;;;;2.35;1.42;;;4.90;99.90;;;;;;10097696;28;20467;-63
2023/03/15 01:37:39;;;;;;;0.60;0.60;;;4.90;99.90;;;;;;10098851;28;20029;-63
2023/03/15 01:42:30;;;;;;;4.25;1.30;;;4.90;99.90;;;;;;10074200;28;20024;-61
2023/03/15 01:47:24;;;;;;;4.90;2.13;;;4.90;99.90;;;;;;10071943;28;20414;-58
2023/03/15 01:52:20;;;;;;;1.30;0.95;;;4.90;99.90;;;;;;10089928;28;20431;-60
2023/03/15 01:57:42;;;;;;;4.53;1.77;;;4.90;99.90;;;;;;10090584;28;20024;-62
2023/03/15 02:02:32;;;;;;;1.85;0.88;;;5.00;99.90;;;;;;10077805;28;20476;-60
2023/03/15 02:07:26;;;;;;;1.38;1.00;;;5.00;99.90;;;;;;10091589;28;20017;-58
2023/03/15 02:12:17;;;;;;;2.92;0.88;;;5.20;99.90;;;;;;10087736;28;20057;-56
2023/03/15 02:17:08;;;;;;;2.08;1.00;;;5.10;99.90;;;;;;10084021;28;20022;-56
2023/03/15 02:22:19;;;;;;;1.70;1.05;;;5.00;99.90;;;;;;10079089;28;20109;-59
2023/03/15 02:27:10;;;;;;;1.60;0.98;;;5.00;99.90;;;;;;10073348;28;20020;-58
2023/03/15 02:32:03;;;;;;;2.25;0.95;;;5.00;99.90;;;;;;10098888;28;20087;-61
2023/03/15 02:36:54;;;;;;;1.30;0.77;;;5.10;99.90;;;;;;10104499;28;20028;-58
2023/03/15 02:41:58;;;;;;;1.17;0.98;;;5.00;99.90;;;;;;10101630;28;20036;-56
2023/03/15 02:46:51;;;;;;;1.42;0.90;;;4.80;99.90;;;;;;10086013;28;20043;-57
2023/03/15 02:51:42;;;;;;;1.25;0.80;;;4.80;99.90;;;;;;10090322;28;20613;-55
2023/03/15 02:56:32;;;;;;;1.33;1.02;;;4.80;99.90;;;;;;10096288;28;20087;-57
2023/03/15 03:01:23;;;;;;;4.00;0.80;;;4.80;99.90;;;;;;10091327;28;20271;-60
2023/03/15 03:06:17;;;;;;;0.90;0.68;;;4.80;99.90;;;;;;10091493;28;20018;-59
2023/03/15 03:11:07;;;;;;;0.77;0.70;;;4.80;99.90;;;;;;10094618;28;20271;-58
2023/03/15 03:15:58;;;;;;;1.45;0.90;;;4.80;99.90;;;;;;10096952;28;20243;-58
2023/03/15 03:20:49;;;;;;;0.82;0.73;;;4.80;99.90;;;;;;10091163;28;20037;-55
2023/03/15 03:25:39;;;;;;;4.20;0.80;;;4.60;99.90;;;;;;10096526;28;20021;-57
2023/03/15 03:30:30;;;;;;;2.20;1.30;;;4.60;99.90;;;;;;10093831;28;20044;-56
2023/03/15 03:35:21;;;;;;;2.33;1.05;;;4.40;99.90;;;;;;10093709;28;20021;-58
2023/03/15 03:40:12;;;;;;;1.23;0.73;;;4.40;99.90;;;;;;10080582;28;20040;-60
2023/03/15 03:45:03;;;;;;;1.52;0.90;;;4.50;99.90;;;;;;10097787;28;20049;-61
2023/03/15 03:49:54;;;;;;;0.80;0.77;;;4.40;99.90;;;;;;10087651;28;20062;-63
2023/03/15 03:54:44;;;;;;;3.05;1.00;;;4.40;99.90;;;;;;10100929;28;20407;-57
2023/03/15 03:59:35;;;;;;;2.28;1.00;;;4.40;99.90;;;;;;10100672;28;20017;-58
2023/03/15 04:04:25;;;;;;;2.28;1.35;;;4.50;99.90;;;;;;10079582;28;20036;-56
2023/03/15 04:09:17;;;;;;;2.65;1.00;;;4.50;99.90;;;;;;10059164;28;20037;-58
2023/03/15 04:14:13;;;;;;;1.63;1.20;;;4.40;99.90;;;;;;10091010;28;20112;-59
2023/03/15 04:19:04;;;;;;;2.30;0.90;;;4.40;99.90;;;;;;10081424;28;20466;-59
2023/03/15 04:23:55;;;;;;;3.88;1.00;;;4.30;99.90;;;;;;10095249;28;20048;-55
2023/03/15 04:28:45;;;;;;;4.93;0.98;;;4.20;99.90;;;;;;10087049;28;20048;-57
2023/03/15 04:33:36;;;;;;;1.52;0.63;;;4.10;99.90;;;;;;10087883;28;20032;-58
2023/03/15 04:38:27;;;;;;;3.70;1.08;;;4.10;99.90;;;;;;10081007;28;20479;-62
2023/03/15 04:43:17;;;;;;;2.72;1.30;;;4.10;99.90;;;;;;10089803;28;20028;-61
2023/03/15 04:48:08;;;;;;;1.70;0.98;;;4.00;99.90;;;;;;10086529;28;20308;-61
2023/03/15 04:52:59;;;;;;;1.77;1.15;;;4.00;99.90;;;;;;10099040;28;20037;-61
2023/03/15 04:57:49;;;;;;;1.92;1.42;;;3.90;99.90;;;;;;10097790;28;20040;-62
2023/03/15 05:02:40;;;;;;;1.92;0.93;;;3.70;99.90;;;;;;10072020;28;20033;-58
2023/03/15 05:07:34;;;;;;;1.65;0.98;;;3.60;99.90;;;;;;10077820;28;20086;-55
2023/03/15 05:12:24;;;;;;;1.30;0.88;;;3.50;99.90;;;;;;10050036;28;20107;-60
2023/03/15 05:17:15;;;;;;;2.50;1.00;;;3.50;99.90;;;;;;10063138;28;20025;-57
2023/03/15 05:22:06;;;;;;;2.90;1.05;;;3.60;99.90;;;;;;10065876;28;20490;-57
2023/03/15 05:26:56;;;;;;;1.73;1.35;;;3.60;99.90;;;;;;10085658;28;20451;-56
2023/03/15 05:31:47;;;;;;;2.17;1.20;;;3.50;99.90;;;;;;10097524;28;20072;-59
2023/03/15 05:36:38;;;;;;;1.75;1.15;;;3.50;99.90;;;;;;10092314;28;20044;-59
2023/03/15 05:41:29;;;;;;;3.67;1.17;;;3.60;99.90;;;;;;10080447;28;20599;-58
2023/03/15 05:46:21;;;;;;;1.20;0.55;;;3.70;99.90;;;;;;10096772;28;20049;-59
2023/03/15 05:51:12;;;;;;;3.38;0.82;;;3.50;99.90;;;;;;10096629;28;20048;-61
2023/03/15 05:56:03;;;;;;;2.80;1.35;;;3.50;99.90;;;;;;10086363;28;20030;-60
2023/03/15 06:00:53;;;;;;;2.30;0.90;;;3.50;99.90;;;;;;10089112;28;20022;-60
2023/03/15 06:05:44;;;;;;;2.78;1.13;;;3.70;99.90;;;;;;10055497;28;20026;-59
2023/03/15 06:10:35;;;;;;;1.52;1.20;;;3.80;99.90;;;;;;10076887;28;20409;-56
2023/03/15 06:15:26;;;;;;;5.32;1.55;;;3.90;99.90;;;;;;10094279;28;20382;-59
2023/03/15 06:20:17;;;;;;;3.45;1.13;;;3.90;99.90;;;;;;10088898;28;20064;-57
2023/03/15 06:25:08;;;;;;;3.67;1.30;;;3.90;99.90;;;;;;10099672;28;20020;-56
2023/03/15 06:29:59;;;;;;;1.60;1.20;;;4.00;99.90;;;;;;10092166;28;20044;-58
2023/03/15 06:34:49;;;;;;;2.80;1.65;;;4.10;99.90;;;;;;10101847;28;20029;-56
2023/03/15 06:39:40;;;;;;;1.65;1.27;;;4.20;99.90;;;;;;10092565;28;20036;-60
2023/03/15 06:44:31;;;;;;;4.22;1.42;;;4.20;99.90;;;;;;10103841;28;20399;-58
2023/03/15 06:49:22;;;;;;;4.88;1.85;;;4.10;99.90;;;;;;10090494;28;20029;-61
2023/03/15 06:54:12;;;;;;;4.13;1.42;;;4.20;99.90;;;;;;10103483;28;20104;-55
2023/03/15 06:59:03;;;;;;;4.13;1.85;;;4.20;99.90;;;;;;10104496;28;20491;-59
2023/03/15 07:03:54;;;;;;;2.38;1.75;;;4.30;99.90;;;;;;10086078;28;20028;-59
2023/03/15 07:08:45;;;;;;;3.20;1.60;;;4.30;99.90;;;;;;10092404;28;20035;-58
2023/03/15 07:13:35;;;;;;;3.50;1.65;;;4.40;99.90;;;;;;10098907;28;20404;-60
2023/03/15 07:18:26;;;;;;;3.30;1.80;;;4.60;99.90;;;;;;10088671;28;20024;-57
2023/03/15 07:23:17;;;;;;;2.40;1.30;;;4.70;99.90;;;;;;10091359;28;20043;-56
2023/03/15 07:28:07;;;;;;;2.03;1.10;;;4.90;99.90;;;;;;10089903;28;20025;-60
2023/03/15 07:32:58;;;;;;;1.08;1.00;;;5.10;99.90;;;;;;10070248;28;20042;-60
2023/03/15 07:37:48;;;;;;;2.30;1.10;;;5.40;99.90;;;;;;10060522;28;20029;-59
2023/03/15 07:42:39;;;;;;;1.52;0.70;;;5.60;99.90;;;;;;10059357;28;20021;-61
2023/03/15 07:47:30;;;;;;;1.30;1.00;;;5.80;99.90;;;;;;10056285;28;20053;-61
2023/03/15 07:52:21;;;;;;;0.88;0.77;;;5.90;99.90;;;;;;10070554;28;20389;-60
2023/03/15 07:57:12;;;;;;;3.70;1.20;;;6.10;99.90;;;;;;10060363;28;20017;-61
2023/03/15 08:02:03;;;;;;;2.88;1.17;;;6.10;99.90;;;;;;10061228;28;20109;-62
2023/03/15 08:06:54;;;;;;;2.72;0.95;;;6.30;99.90;;;;;;10061964;28;20059;-63
2023/03/15 08:11:44;;;;;;;3.22;1.50;;;6.40;99.90;;;;;;10061257;28;20033;-62
2023/03/15 08:16:35;;;;;;;3.13;1.40;;;6.20;99.90;;;;;;10063285;28;20017;-63
2023/03/15 08:21:25;;;;;;;2.65;1.08;;;6.30;99.90;;;;;;10062721;28;20021;-63
2023/03/15 08:26:16;;;;;;;0.95;0.85;;;6.20;99.90;;;;;;10062539;28;20029;-62
2023/03/15 08:31:08;;;;;;;3.53;0.95;;;6.40;99.90;;;;;;10059960;28;20614;-64
2023/03/15 08:35:59;;;;;;;1.88;0.77;;;6.50;99.90;;;;;;10060541;28;20525;-67
2023/03/15 08:40:55;;;;;;;1.17;1.00;;;6.70;99.90;;;;;;10060317;28;20122;-61
2023/03/15 08:45:48;;;;;;;1.27;0.80;;;7.00;99.90;;;;;;10059410;28;20052;-63
2023/03/15 08:50:39;;;;;;;1.80;1.15;;;7.30;99.90;;;;;;10059050;28;20480;-64
2023/03/15 08:55:29;;;;;;;2.00;0.88;;;7.50;99.90;;;;;;10060104;28;20125;-63
2023/03/15 09:00:21;;;;;;;1.48;1.27;;;7.60;99.90;;;;;;10068926;28;20393;-60
2023/03/15 09:05:12;;;;;;;1.63;0.80;;;7.70;99.90;;;;;;10079863;28;20025;-63
2023/03/15 09:10:03;;;;;;;2.15;0.85;;;7.90;99.90;;;;;;10072009;28;20041;-62
2023/03/15 09:14:54;;;;;;;2.85;0.95;;;8.10;99.90;;;;;;10060354;28;20036;-60
2023/03/15 09:19:44;;;;;;;2.75;1.25;;;8.20;99.90;;;;;;10057200;28;20037;-65
2023/03/15 09:24:35;;;;;;;1.38;0.85;;;8.10;99.90;;;;;;10058101;28;20024;-65
2023/03/15 09:29:25;;;;;;;1.17;1.00;;;8.20;99.90;;;;;;10057519;28;20038;-67
2023/03/15 09:34:16;;;;;;;2.28;1.27;;;8.20;99.90;;;;;;10057740;28;20025;-62
2023/03/15 09:39:07;;;;;;;2.17;0.73;;;8.00;99.90;;;;;;10057318;28;20029;-68
2023/03/15 09:44:06;;;;;;;1.52;1.40;;;8.00;99.90;;;;;;10056050;28;20067;-66
2023/03/15 09:49:12;;;;;;;1.25;0.90;;;8.20;99.90;;;;;;10056812;28;20407;-64
2023/03/15 09:54:23;;;;;;;1.38;1.05;;;8.50;99.90;;;;;;10056579;28;20029;-65
2023/03/15 09:59:16;;;;;;;1.88;1.05;;;8.30;99.90;;;;;;10056347;28;20133;-61
2023/03/15 10:04:43;;;;;;;2.42;1.00;;;8.50;99.90;;;;;;10059331;28;20100;-62
2023/03/15 10:09:34;;;;;;;2.13;1.33;;;8.50;99.90;;;;;;9949364;28;20034;-64
2023/03/15 10:14:32;;;;;;;3.85;1.45;;;8.60;99.90;;;;;;10055609;28;20038;-65
2023/03/15 10:19:45;;;;;;;1.55;1.00;;;8.70;99.90;;;;;;10055329;28;20017;-59
2023/03/15 10:24:44;;;;;;;4.35;1.83;;;8.80;99.90;;;;;;10055339;28;20057;-63
2023/03/15 10:29:35;;;;;;;1.17;0.75;;;8.90;99.90;;;;;;10056763;28;20409;-61
2023/03/15 10:34:26;;;;;;;0.95;0.95;;;9.30;99.90;;;;;;10056205;28;20022;-61
2023/03/15 10:39:18;;;;;;;5.22;1.00;;;9.60;99.90;;;;;;10055957;28;20018;-62
2023/03/15 10:44:24;;;;;;;4.65;1.00;;;9.50;99.90;;;;;;10054061;28;20032;-61
2023/03/15 10:49:15;;;;;;;1.13;0.50;;;9.00;99.90;;;;;;10055905;28;20045;-60
2023/03/15 10:54:18;;;;;;;0.50;0.20;;;8.90;99.90;;;;;;10063783;28;20040;-60
2023/03/15 10:59:26;;;;;;;0.47;0.40;;;8.90;99.90;;;;;;10060903;28;20053;-60
2023/03/15 11:04:20;;;;;;;1.70;0.75;;;9.00;99.90;;;;;;10063975;28;20388;-60
2023/03/15 11:09:21;;;;;;;0.60;0.45;;;9.20;99.90;;;;;;10060750;28;20296;-60
2023/03/15 11:14:12;;;;;;;1.35;0.82;;;9.40;99.90;;;;;;10059603;28;20502;-62
2023/03/15 11:19:18;;;;;;;3.28;0.75;;;9.60;99.90;;;;;;10060093;28;20029;-60
2023/03/15 11:24:23;;;;;;;0.88;0.57;;;9.50;99.90;;;;;;10060693;28;20033;-62
2023/03/15 11:29:26;;;;;;;2.13;0.57;;;10.10;99.70;;;;;;10064224;28;20033;-58
2023/03/15 11:35:04;;;;;;;0.90;0.50;;;10.60;99.20;;;;;;10059763;28;20083;-64
2023/03/15 11:40:19;;;;;;;1.48;0.82;;;10.50;98.40;;;;;;10056777;28;20041;-62
2023/03/15 11:45:41;;;;;;;0.93;0.70;;;10.30;99.10;;;;;;10047099;28;20158;-61
2023/03/15 11:50:32;;;;;;;1.88;0.52;;;10.70;98.60;;;;;;10047396;28;20581;-59
2023/03/15 11:55:27;;;;;;;0.98;0.60;;;10.80;98.50;;;;;;10082054;28;20278;-63
2023/03/15 12:00:25;;;;;;;1.47;1.23;;;11.00;98.20;;;;;;10100002;28;20063;-62
2023/03/15 12:05:41;;;;;;;0.95;0.52;;;11.30;98.10;;;;;;10092348;28;20025;-61
2023/03/15 12:10:43;;;;;;;0.90;0.60;;;10.80;97.80;;;;;;10098510;28;20094;-63
2023/03/15 12:15:37;;;;;;;1.23;0.52;;;10.60;98.00;;;;;;10094555;28;20021;-61
2023/03/15 12:20:36;;;;;;;0.63;0.63;;;10.00;98.00;;;;;;10094447;28;20021;-62
2023/03/15 12:25:35;;;;;;;0.70;0.50;;;9.90;98.00;;;;;;10102557;28;20035;-61
2023/03/15 12:30:31;;;;;;;0.63;0.50;;;9.80;97.90;;;;;;10075466;28;20037;-63
2023/03/15 12:35:27;;;;;;;0.77;0.45;;;9.70;97.70;;;;;;10057255;28;20032;-60
2023/03/15 12:40:23;;;;;;;1.00;0.50;;;9.60;97.60;;;;;;10057881;28;20108;-63
2023/03/15 12:45:16;;;;;;;1.15;0.60;;;9.50;97.60;;;;;;10063182;28;20561;-59
2023/03/15 12:50:44;;;;;;;2.53;1.15;;;9.40;97.30;;;;;;10056871;28;20109;-60
2023/03/15 12:55:35;;;;;;;2.22;0.95;;;9.20;96.90;;;;;;10061026;28;20033;-59
2023/03/15 13:00:29;;;;;;;1.98;1.27;;;9.20;97.00;;;;;;10062236;28;20024;-59
2023/03/15 13:05:37;;;;;;;1.15;0.73;;;9.10;97.70;;;;;;10071442;28;20037;-60
2023/03/15 13:10:56;;;;;;;1.73;1.10;;;9.40;98.20;;;;;;10067542;28;20510;-60
2023/03/15 13:16:21;;;;;;;1.52;0.70;;;9.70;98.70;;;;;;10063195;28;20064;-59
2023/03/15 13:21:32;;;;;;;0.80;0.60;;;10.60;99.20;;;;;;10023451;28;20408;-61
2023/03/15 13:26:43;;;;;;;5.22;1.35;;;11.60;99.80;;;;;;10058943;28;20108;-62
2023/03/15 13:31:36;;;;;;;1.95;0.60;;;11.20;99.80;;;;;;10059531;28;20088;-61
2023/03/15 13:36:42;;;;;;;1.67;1.08;;;10.20;99.90;;;;;;10060801;28;20032;-62
2023/03/15 13:41:32;;;;;;;;;;;9.70;99.90;;;;;;10061073;28;20472;-65
2023/03/15 13:46:25;;;;;;;3.85;2.22;;;9.10;99.90;;;;;;10056880;28;19921;-59
2023/03/15 13:51:36;;;;;;;7.25;3.60;;;8.80;99.90;;;;;;10063342;28;20115;-60
2023/03/15 13:56:33;;;;;;;3.00;1.58;;;8.80;99.90;;;;;;10052959;28;20062;-60
2023/03/15 14:01:25;;;;;;;4.13;1.90;;;8.60;99.90;;;;;;10050994;28;20026;-60
2023/03/15 14:06:22;;;;;;;1.30;1.20;;;8.40;99.90;;;;;;10037706;28;20028;-61
2023/03/15 14:11:36;;;;;;;1.80;0.82;;;8.60;99.90;;;;;;10056474;28;20064;-64
2023/03/15 14:16:39;;;;;;;3.92;1.80;;;8.90;99.90;;;;;;10046375;28;20432;-62
2023/03/15 14:21:31;;;;;;;3.15;1.02;;;10.00;99.90;;;;;;10053866;28;20064;-65
2023/03/15 14:26:27;;;;;;;2.33;1.10;;;11.30;99.90;;;;;;10066181;28;20021;-61
2023/03/15 14:31:25;;;;;;;2.33;1.10;;;12.60;99.90;;;;;;10053496;28;20343;-61
2023/03/15 14:36:44;;;;;;;1.45;1.10;;;12.80;99.90;;;;;;10067872;28;20095;-63
2023/03/15 14:41:37;;;;;;;3.72;1.10;;;14.70;99.40;;;;;;10047188;28;20040;-65
2023/03/15 14:46:30;;;;;;;2.33;0.98;;;14.80;99.50;;;;;;10092313;28;20142;-64
2023/03/15 14:51:22;;;;;;;1.38;0.90;;;13.00;99.90;;;;;;10088402;28;20067;-64
2023/03/15 14:56:14;;;;;;;3.10;0.90;;;11.60;99.90;;;;;;10064848;28;20415;-64
2023/03/15 15:01:05;;;;;;;3.25;1.15;;;10.70;99.90;;;;;;10069434;28;20020;-62
2023/03/15 15:05:56;;;;;;;0.80;0.80;;;10.30;99.90;;;;;;10072903;28;20025;-61
2023/03/15 15:10:48;;;;;;;1.33;1.10;;;10.10;99.90;;;;;;10077404;28;20036;-63
2023/03/15 15:15:39;;;;;;;3.05;1.27;;;10.70;99.90;;;;;;10088053;28;20028;-63
2023/03/15 15:20:29;;;;;;;3.50;1.48;;;11.40;99.40;;;;;;10089352;28;20110;-61
2023/03/15 15:25:23;;;;;;;1.77;1.58;;;11.60;98.80;;;;;;10089412;28;20036;-65
2023/03/15 15:30:20;;;;;;;2.58;1.40;;;11.00;99.20;;;;;;10067247;28;20408;-60
2023/03/15 15:35:14;;;;;;;3.90;1.50;;;10.60;99.50;;;;;;10066791;28;20021;-62
2023/03/15 15:40:10;;;;;;;2.72;1.63;;;10.40;99.70;;;;;;10070836;28;20018;-62
2023/03/15 15:45:01;;;;;;;1.83;1.00;;;10.40;99.80;;;;;;10089503;28;20049;-63
2023/03/15 15:49:52;;;;;;;1.98;1.30;;;10.20;99.90;;;;;;10079824;28;20033;-62
2023/03/15 15:54:42;;;;;;;1.52;1.08;;;10.10;99.90;;;;;;10068163;28;20033;-60
2023/03/15 15:59:33;;;;;;;2.00;1.52;;;9.90;99.90;;;;;;10064160;28;20029;-62
2023/03/15 16:04:24;;;;;;;1.75;0.75;;;9.70;99.90;;;;;;10064654;28;20045;-60
2023/03/15 16:09:14;;;;;;;3.53;1.00;;;9.30;99.90;;;;;;10074899;28;20037;-60
2023/03/15 16:14:05;;;;;;;1.58;0.60;;;9.10;99.90;;;;;;10079673;28;20041;-64
2023/03/15 16:18:56;;;;;;;1.55;0.77;;;9.10;99.90;;;;;;10078939;28;20029;-61
2023/03/15 16:23:54;;;;;;;4.93;1.38;;;8.90;99.90;;;;;;10082569;28;20021;-60
2023/03/15 16:28:46;;;;;;;2.08;0.80;;;8.90;99.90;;;;;;10077128;28;20037;-61
2023/03/15 16:33:37;;;;;;;1.42;0.80;;;9.00;99.90;;;;;;10061443;28;20508;-63
2023/03/15 16:38:31;;;;;;;2.53;1.25;;;8.80;99.90;;;;;;10068596;28;20043;-61
2023/03/15 16:43:21;;;;;;;0.82;0.73;;;8.80;99.90;;;;;;10076186;28;20029;-62
2023/03/15 16:48:13;;;;;;;0.77;0.50;;;8.90;99.90;;;;;;10089349;28;20049;-60
2023/03/15 16:53:07;;;;;;;1.95;1.00;;;9.10;99.90;;;;;;10086335;28;20071;-60
2023/03/15 16:58:00;;;;;;;1.65;0.93;;;9.00;99.90;;;;;;10059602;28;20469;-60
2023/03/15 17:02:51;;;;;;;1.13;0.63;;;8.90;99.90;;;;;;10044390;28;20038;-60
2023/03/15 17:07:42;;;;;;;1.98;0.88;;;8.90;99.90;;;;;;10070696;28;20029;-60
2023/03/15 17:12:36;;;;;;;2.67;0.98;;;8.90;99.90;;;;;;10072745;28;20033;-62
2023/03/15 17:17:27;;;;;;;2.70;0.88;;;9.00;99.90;;;;;;10080389;28;20175;-61
2023/03/15 17:22:19;;;;;;;4.82;1.77;;;8.80;99.90;;;;;;10083306;28;20063;-61
2023/03/15 17:27:35;;;;;;;1.40;0.90;;;8.60;99.90;;;;;;10079717;28;20020;-61
2023/03/15 17:32:27;;;;;;;3.22;1.00;;;8.40;99.90;;;;;;10068906;28;20353;-60
2023/03/15 17:37:18;;;;;;;3.55;1.13;;;8.30;99.90;;;;;;10061672;28;20026;-62
2023/03/15 17:42:12;;;;;;;2.92;1.23;;;8.40;99.90;;;;;;10071907;28;20139;-60
2023/03/15 17:47:03;;;;;;;2.65;1.42;;;8.30;99.90;;;;;;10077955;28;20073;-63
2023/03/15 17:51:55;;;;;;;4.47;1.63;;;8.40;99.90;;;;;;10072415;28;20037;-61
2023/03/15 17:56:46;;;;;;;2.97;1.42;;;8.20;99.90;;;;;;10046871;28;20288;-61
2023/03/15 18:01:39;;;;;;;2.15;1.08;;;8.20;99.90;;;;;;10037543;28;20068;-64
2023/03/15 18:06:30;;;;;;;4.53;1.70;;;8.10;99.90;;;;;;10032843;28;20396;-62
2023/03/15 18:11:27;;;;;;;4.50;1.58;;;8.10;99.90;;;;;;10053691;28;20036;-65
2023/03/15 18:16:18;;;;;;;3.45;2.17;;;8.30;99.90;;;;;;10058938;28;20067;-59
2023/03/15 18:21:15;;;;;;;4.07;1.60;;;8.30;99.90;;;;;;10050366;28;20086;-61
2023/03/15 18:26:06;;;;;;;4.22;1.30;;;8.30;99.90;;;;;;10071877;28;20029;-58
2023/03/15 18:30:56;;;;;;;5.15;1.42;;;8.20;99.90;;;;;;10054439;28;20511;-61
2023/03/15 18:35:47;;;;;;;3.22;1.48;;;8.20;99.90;;;;;;10060588;28;20030;-63
2023/03/15 18:40:38;;;;;;;4.25;2.00;;;8.40;99.90;;;;;;10064747;28;20116;-60
2023/03/15 18:45:31;;;;;;;7.78;2.55;;;8.40;99.90;;;;;;10084933;28;20060;-61
2023/03/15 18:50:22;;;;;;;5.72;2.47;;;8.40;99.90;;;;;;10081670;28;20186;-61
2023/03/15 18:55:15;;;;;;;4.20;2.50;;;8.30;99.90;;;;;;10063912;28;20188;-58
2023/03/15 19:00:12;;;;;;;6.70;2.70;;;8.30;99.90;;;;;;10065190;28;20110;-58
2023/03/15 19:05:03;;;;;;;3.95;2.65;;;8.30;99.90;;;;;;10061437;28;20026;-59
2023/03/15 19:09:53;;;;;;;5.47;1.90;;;8.30;99.90;;;;;;10070890;28;20037;-62
2023/03/15 19:14:44;;;;;;;3.45;1.98;;;8.20;99.90;;;;;;10072591;28;20029;-61
2023/03/15 19:19:35;;;;;;;3.50;2.42;;;8.10;99.90;;;;;;10089490;28;20022;-61
2023/03/15 19:24:25;;;;;;;4.90;2.33;;;8.20;99.90;;;;;;10073674;28;20404;-59
2023/03/15 19:29:16;;;;;;;4.35;2.70;;;8.20;99.90;;;;;;10085790;28;20037;-61
2023/03/15 19:34:06;;;;;;;4.60;2.55;;;8.20;99.90;;;;;;10064206;28;20033;-62
2023/03/15 19:38:57;;;;;;;4.40;2.42;;;8.20;99.90;;;;;;10070296;28;20030;-60
2023/03/15 19:43:48;;;;;;;4.50;1.98;;;8.20;99.90;;;;;;10080119;28;20044;-58
2023/03/15 19:48:38;;;;;;;3.42;2.28;;;8.10;99.90;;;;;;10092805;28;20135;-60
2023/03/15 19:53:29;;;;;;;4.85;2.50;;;8.10;99.90;;;;;;10074236;28;20050;-59
2023/03/15 19:58:19;;;;;;;4.30;2.08;;;8.00;99.90;;;;;;10066186;28;20107;-62
2023/03/15 20:03:11;;;;;;;4.18;2.40;;;8.00;99.90;;;;;;10067868;28;20040;-60
2023/03/15 20:08:02;;;;;;;6.05;3.08;;;7.80;99.90;;;;;;10065074;28;20108;-60
2023/03/15 20:12:57;;;;;;;4.13;2.47;;;7.80;99.90;;;;;;10075636;28;20124;-61
2023/03/15 20:17:48;;;;;;;3.55;2.10;;;7.80;99.90;;;;;;10090942;28;20025;-60
2023/03/15 20:22:40;;;;;;;3.38;2.10;;;7.80;99.90;;;;;;10068705;28;20483;-61
2023/03/15 20:27:32;;;;;;;6.03;2.67;;;7.80;99.90;;;;;;10060315;28;20626;-61
2023/03/15 20:32:23;;;;;;;2.67;2.25;;;7.70;99.90;;;;;;10065737;28;20099;-62
2023/03/15 20:37:13;;;;;;;2.53;1.58;;;7.70;99.90;;;;;;10070660;28;20025;-60
2023/03/15 20:42:04;;;;;;;3.75;1.90;;;7.60;99.90;;;;;;10077425;28;20107;-62
2023/03/15 20:46:57;;;;;;;3.40;2.03;;;7.60;99.90;;;;;;10088847;28;20045;-60
2023/03/15 20:51:48;;;;;;;4.75;2.88;;;7.50;99.90;;;;;;10083221;28;20044;-60
2023/03/15 20:56:38;;;;;;;3.85;1.90;;;7.60;99.90;;;;;;10058216;28;20026;-59
2023/03/15 21:01:30;;;;;;;6.10;2.30;;;7.60;99.90;;;;;;10052834;28;20026;-59
2023/03/15 21:06:22;;;;;;;4.63;2.28;;;7.60;99.90;;;;;;10047349;28;20128;-64
2023/03/15 21:11:12;;;;;;;4.22;2.72;;;7.60;99.90;;;;;;10063469;28;20146;-59
2023/03/15 21:16:03;;;;;;;4.10;1.95;;;7.50;99.90;;;;;;10071319;28;20597;-61
2023/03/15 21:21:00;;;;;;;4.93;2.30;;;7.40;99.90;;;;;;10077341;28;20028;-60
2023/03/15 21:25:54;;;;;;;4.00;2.40;;;7.40;99.90;;;;;;10080903;28;20033;-59
2023/03/15 21:30:45;;;;;;;5.15;2.10;;;7.40;99.90;;;;;;10082455;28;20033;-61
2023/03/15 21:35:36;;;;;;;6.85;2.50;;;7.40;99.90;;;;;;10060177;28;20060;-61
2023/03/15 21:40:27;;;;;;;3.08;1.98;;;7.40;99.90;;;;;;10064977;28;20496;-58
2023/03/15 21:45:17;;;;;;;4.38;2.05;;;7.30;99.90;;;;;;10087130;28;20057;-60
2023/03/15 21:50:10;;;;;;;5.60;2.40;;;7.30;99.90;;;;;;10088277;28;20029;-60
2023/03/15 21:55:01;;;;;;;4.18;2.47;;;7.30;99.90;;;;;;10078516;28;20034;-63
2023/03/15 21:59:52;;;;;;;6.53;2.45;;;7.30;99.90;;;;;;10061954;28;20071;-65
2023/03/15 22:04:42;;;;;;;5.53;2.67;;;7.20;99.90;;;;;;10061987;28;20032;-64
2023/03/15 22:09:33;;;;;;;3.08;2.42;;;7.00;99.90;;;;;;10065649;28;20111;-66
2023/03/15 22:14:24;;;;;;;5.35;2.65;;;6.90;99.90;;;;;;10070403;28;20040;-65
2023/03/15 22:19:15;;;;;;;6.43;2.30;;;7.00;99.90;;;;;;10079622;28;20053;-66
2023/03/15 22:24:06;;;;;;;5.07;2.42;;;7.10;99.90;;;;;;10080351;28;20405;-65
2023/03/15 22:28:57;;;;;;;4.35;3.20;;;7.00;99.90;;;;;;10088929;28;20057;-59
2023/03/15 22:33:47;;;;;;;3.50;2.22;;;6.80;99.90;;;;;;10060045;28;20056;-59
2023/03/15 22:38:38;;;;;;;4.15;2.22;;;6.80;99.90;;;;;;10064787;28;20029;-63
2023/03/15 22:43:29;;;;;;;2.63;2.05;;;6.70;99.90;;;;;;10074124;28;20386;-60
2023/03/15 22:48:20;;;;;;;3.72;2.10;;;6.60;99.90;;;;;;10087604;28;20045;-57
2023/03/15 22:53:10;;;;;;;3.00;2.05;;;6.70;99.90;;;;;;10079961;28;20037;-58
2023/03/15 22:58:01;;;;;;;2.47;1.73;;;6.60;99.90;;;;;;10061152;28;20026;-62
2023/03/15 23:02:52;;;;;;;2.05;1.35;;;6.60;99.90;;;;;;10066419;28;20045;-61
2023/03/15 23:07:43;;;;;;;2.30;1.67;;;6.50;99.90;;;;;;10065596;28;20025;-61
2023/03/15 23:12:33;;;;;;;3.35;1.83;;;6.60;99.90;;;;;;10083558;28;20174;-59
2023/03/15 23:17:24;;;;;;;4.22;1.48;;;6.50;99.90;;;;;;10087497;28;20029;-58
2023/03/15 23:22:15;;;;;;;2.20;1.63;;;6.50;99.90;;;;;;10091483;28;20459;-60
2023/03/15 23:27:06;;;;;;;2.42;1.98;;;6.40;99.90;;;;;;10090506;28;20028;-61
2023/03/15 23:31:56;;;;;;;3.67;2.20;;;6.40;99.90;;;;;;10066980;28;20045;-60
2023/03/15 23:36:47;;;;;;;3.58;1.83;;;6.30;99.90;;;;;;10067697;28;20029;-59
2023/03/15 23:41:37;;;;;;;5.15;2.08;;;6.20;99.90;;;;;;10075584;28;20040;-59
2023/03/15 23:46:28;;;;;;;3.08;2.13;;;6.40;99.90;;;;;;10090791;28;20044;-62
2023/03/15 23:51:20;;;;;;;7.13;3.10;;;6.40;99.90;;;;;;10080701;28;20044;-59
2023/03/15 23:56:11;;;;;;;6.68;3.67;;;6.20;99.90;;;;;;10060007;28;20044;-56
